Data for 10/14/2013

Time Sea-Level Adjusted Pressure Absolute Pressure Temperature Relative Humidity Dew Point Precipitation   
(mb) (inHg) (mb) (inHg) (C) (F) (%) (C) (F) (mm) (in)
00:05 1024 30.24 853 25.19 0.4 32.7 99 0.2 32.4 .2 0.008
00:10 1024 30.24 853 25.19 0.4 32.6 99 0.2 32.3 0 0
00:15 1024 30.24 853 25.19 0.3 32.6 99 0.2 32.3 0 0
00:20 1024 30.24 853 25.19 0.3 32.6 99 0.2 32.3 0 0
00:25 1024 30.24 853 25.19 0.4 32.6 99 0.2 32.3 0 0
00:30 1024 30.24 853 25.19 0.4 32.7 99 0.2 32.4 0 0
00:35 1024 30.24 853 25.19 0.4 32.7 99 0.2 32.4 0 0
00:40 1024 30.24 853 25.19 0.4 32.8 99 0.2 32.4 0 0
00:45 1024 30.24 853 25.19 0.5 32.8 99 0.3 32.5 0 0
00:50 1024 30.24 853 25.19 0.5 32.9 99 0.3 32.6 0 0
00:55 1024 30.24 853 25.19 0.5 32.9 99 0.3 32.6 0 0
01:00 1024 30.24 853 25.19 0.5 33 99 0.4 32.7 0 0
01:05 1024 30.24 854 25.22 0.6 33 99 0.4 32.7 0 0
01:10 1024 30.24 854 25.22 0.6 33 99 0.4 32.7 0 0
01:15 1024 30.24 854 25.22 0.6 33 99 0.3 32.6 0 0
01:20 1024 30.24 854 25.22 0.6 33 99 0.4 32.7 0 0
01:25 1024 30.24 854 25.22 0.6 33.1 99 0.4 32.7 0 0
01:30 1024 30.24 854 25.22 0.6 33.1 99 0.4 32.7 0 0
01:35 1025 30.27 854 25.22 0.6 33 98 0.3 32.6 0 0
01:40 1025 30.27 854 25.22 0.5 33 99 0.3 32.6 0 0
01:45 1025 30.27 854 25.22 0.5 32.9 98 0.3 32.5 .2 0.008
01:50 1025 30.27 854 25.22 0.5 32.8 98 0.2 32.4 0 0
01:55 1025 30.27 854 25.22 0.4 32.7 98 0.2 32.3 .2 0.008
02:00 1025 30.27 854 25.22 0.3 32.6 99 0.1 32.2 0 0
02:05 1025 30.27 854 25.22 0.3 32.5 98 0 32.1 0 0
02:10 1025 30.27 854 25.22 0.2 32.3 99 -0 31.9 0 0
02:15 1025 30.27 854 25.22 0.1 32.1 99 -0.1 31.8 0 0
02:20 1025 30.27 854 25.22 -0 31.9 99 -0.2 31.6 .2 0.008
02:25 1025 30.27 854 25.22 -0.1 31.8 99 -0.3 31.5 0 0
02:30 1025 30.27 854 25.22 -0.2 31.7 99 -0.3 31.4 0 0
02:35 1025 30.27 854 25.22 -0.2 31.6 99 -0.4 31.3 0 0
02:40 1025 30.27 854 25.22 -0.3 31.5 99 -0.4 31.3 0 0
02:45 1025 30.27 854 25.22 -0.3 31.5 99 -0.5 31.2 .2 0.008
02:50 1025 30.27 854 25.22 -0.3 31.4 99 -0.5 31.2 0 0
02:55 1025 30.27 854 25.22 -0.3 31.4 99 -0.5 31.1 0 0
03:00 1025 30.27 854 25.22 -0.3 31.4 99 -0.5 31.2 0 0
03:05 1025 30.27 854 25.22 -0.4 31.4 99 -0.5 31.2 0 0
03:10 1025 30.27 854 25.22 -0.4 31.3 99 -0.5 31.1 0 0
03:15 1025 30.27 854 25.22 -0.4 31.3 99 -0.5 31.2 .2 0.008
03:20 1025 30.27 854 25.22 -0.4 31.4 99 -0.5 31.2 0 0
03:25 1025 30.27 854 25.22 -0.3 31.4 99 -0.5 31.2 0 0
03:30 1025 30.27 854 25.22 -0.3 31.4 99 -0.4 31.2 0 0
03:35 1025 30.27 854 25.22 -0.3 31.4 99 -0.4 31.2 0 0
03:40 1025 30.27 854 25.22 -0.3 31.4 99 -0.4 31.2 0 0
03:45 1025 30.27 854 25.22 -0.4 31.4 99 -0.5 31.2 0 0
03:50 1025 30.27 854 25.22 -0.4 31.4 99 -0.5 31.2 0 0
03:55 1025 30.27 854 25.22 -0.3 31.4 99 -0.4 31.2 0 0
04:00 1025 30.27 854 25.22 -0.3 31.4 99 -0.4 31.3 0 0
04:05 1025 30.27 854 25.22 -0.3 31.4 99 -0.4 31.2 0 0
04:10 1025 30.27 854 25.22 -0.3 31.4 99 -0.4 31.3 0 0
04:15 1025 30.27 854 25.22 -0.3 31.4 99 -0.4 31.3 0 0
04:20 1025 30.27 854 25.22 -0.3 31.4 99 -0.4 31.3 0 0
04:25 1025 30.27 854 25.22 -0.3 31.4 99 -0.4 31.3 0 0
04:30 1025 30.27 854 25.22 -0.3 31.5 99 -0.4 31.3 0 0
04:35 1025 30.27 854 25.22 -0.3 31.5 99 -0.4 31.4 0 0
04:40 1025 30.27 854 25.22 -0.3 31.5 99 -0.3 31.4 0 0
04:45 1025 30.27 854 25.22 -0.2 31.6 100 -0.3 31.4 0 0
04:50 1025 30.27 854 25.22 -0.2 31.6 100 -0.3 31.4 0 0
04:55 1025 30.27 854 25.22 -0.2 31.6 100 -0.3 31.5 0 0
05:00 1025 30.27 854 25.22 -0.2 31.7 100 -0.3 31.5 0 0
05:05 1025 30.27 854 25.22 -0.2 31.7 100 -0.2 31.6 0 0
05:10 1025 30.27 854 25.22 -0.1 31.7 100 -0.2 31.6 0 0
05:15 1025 30.27 854 25.22 -0.1 31.8 100 -0.2 31.7 0 0
05:20 1025 30.27 854 25.22 -0.1 31.8 100 -0.2 31.7 0 0
05:25 1025 30.27 854 25.22 -0.2 31.7 100 -0.2 31.6 0 0
05:30 1025 30.27 854 25.22 -0.2 31.6 100 -0.3 31.5 0 0
05:35 1025 30.27 854 25.22 -0.3 31.6 100 -0.3 31.5 0 0
05:40 1025 30.27 854 25.22 -0.3 31.5 100 -0.3 31.4 0 0
05:45 1025 30.27 854 25.22 -0.3 31.4 100 -0.4 31.3 0 0
05:50 1025 30.27 854 25.22 -0.4 31.4 100 -0.4 31.3 0 0
05:55 1025 30.27 854 25.22 -0.4 31.3 100 -0.5 31.2 0 0
06:00 1025 30.27 854 25.22 -0.4 31.3 100 -0.5 31.2 0 0
06:05 1025 30.27 854 25.22 -0.4 31.3 100 -0.5 31.2 0 0
06:10 1025 30.27 854 25.22 -0.4 31.3 100 -0.5 31.2 0 0
06:15 1025 30.27 854 25.22 -0.4 31.3 100 -0.5 31.2 0 0
06:20 1025 30.27 854 25.22 -0.4 31.3 100 -0.5 31.2 0 0
06:25 1025 30.27 854 25.22 -0.4 31.2 100 -0.5 31.2 0 0
06:30 1025 30.27 854 25.22 -0.4 31.2 100 -0.5 31.2 0 0
06:35 1025 30.27 854 25.22 -0.4 31.2 100 -0.5 31.1 0 0
06:40 1025 30.27 854 25.22 -0.4 31.2 100 -0.5 31.1 0 0
06:45 1025 30.27 854 25.22 -0.4 31.2 100 -0.5 31.2 0 0
06:50 1025 30.27 855 25.25 -0.4 31.2 100 -0.5 31.1 0 0
06:55 1025 30.27 855 25.25 -0.4 31.2 100 -0.5 31.2 0 0
07:00 1025 30.27 855 25.25 -0.4 31.3 100 -0.4 31.3 0 0
07:05 1026 30.3 855 25.25 -0.4 31.3 100 -0.4 31.2 0 0
07:10 1026 30.3 855 25.25 -0.4 31.3 100 -0.4 31.2 0 0
07:15 1026 30.3 855 25.25 -0.3 31.4 100 -0.4 31.3 0 0
07:20 1026 30.3 855 25.25 -0.3 31.5 100 -0.3 31.4 0 0
07:25 1026 30.3 855 25.25 -0.3 31.5 100 -0.3 31.4 0 0
07:30 1026 30.3 855 25.25 -0.3 31.5 100 -0.3 31.4 0 0
07:35 1026 30.3 855 25.25 -0.3 31.5 100 -0.3 31.4 0 0
07:40 1026 30.3 855 25.25 -0.3 31.5 100 -0.3 31.4 0 0
07:45 1026 30.3 855 25.25 -0.3 31.4 100 -0.4 31.3 0 0
07:50 1026 30.3 855 25.25 -0.3 31.4 100 -0.4 31.3 0 0
07:55 1026 30.3 855 25.25 -0.3 31.4 100 -0.4 31.4 0 0
08:00 1026 30.3 855 25.25 -0.3 31.4 100 -0.3 31.4 0 0
08:05 1026 30.3 855 25.25 -0.3 31.5 100 -0.3 31.5 0 0
08:10 1026 30.3 855 25.25 -0.2 31.6 100 -0.3 31.5 0 0
08:15 1026 30.3 855 25.25 -0.2 31.7 100 -0.2 31.6 0 0
08:20 1026 30.3 855 25.25 -0.1 31.8 100 -0.2 31.7 0 0
08:25 1026 30.3 855 25.25 -0.1 31.9 100 -0.1 31.8 0 0
08:30 1026 30.3 855 25.25 -0.1 31.9 100 -0.1 31.8 0 0
08:35 1026 30.3 855 25.25 0.1 32.1 98 -0.2 31.6 0 0
08:40 1026 30.3 856 25.28 0.2 32.4 96 -0.3 31.4 0 0
08:45 1026 30.3 856 25.28 0.2 32.4 96 -0.3 31.4 0 0
08:50 1026 30.3 856 25.28 0.3 32.5 95 -0.4 31.3 0 0
08:55 1027 30.33 856 25.28 0.3 32.6 94 -0.5 31.2 .2 0.008
09:00 1027 30.33 856 25.28 0.4 32.7 94 -0.5 31.1 0 0
09:05 1027 30.33 856 25.28 0.4 32.7 93 -0.6 30.9 0 0
09:10 1027 30.33 856 25.28 0.5 32.8 93 -0.5 31.1 0 0
09:15 1027 30.33 856 25.28 0.5 32.8 93 -0.6 30.9 0 0
09:20 1027 30.33 856 25.28 0.5 32.8 92 -0.7 30.8 0 0
09:25 1027 30.33 856 25.28 0.4 32.8 92 -0.7 30.8 0 0
09:30 1027 30.33 856 25.28 0.4 32.7 93 -0.6 30.9 0 0
09:35 1027 30.33 856 25.28 0.4 32.7 93 -0.6 30.9 .2 0.008
09:40 1027 30.33 856 25.28 0.4 32.7 94 -0.6 31 0 0
09:45 1027 30.33 856 25.28 0.4 32.8 92 -0.7 30.7 .2 0.008
09:50 1027 30.33 856 25.28 0.6 33.1 91 -0.7 30.7 .2 0.008
09:55 1027 30.33 856 25.28 0.7 33.2 91 -0.6 30.8 .2 0.008
10:00 1027 30.33 856 25.28 0.7 33.3 90 -0.7 30.7 .2 0.008
10:05 1027 30.33 856 25.28 0.8 33.4 90 -0.7 30.8 .2 0.008
10:10 1027 30.33 856 25.28 0.8 33.4 90 -0.7 30.8 .2 0.008
10:15 1027 30.33 856 25.28 0.9 33.6 90 -0.6 31 .4 0.016
10:20 1027 30.33 856 25.28 1 33.8 90 -0.5 31.1 .2 0.008
10:25 1027 30.33 856 25.28 1.1 33.9 88 -0.7 30.8 .2 0.008
10:30 1027 30.33 856 25.28 1.2 34.1 86 -0.9 30.4 .2 0.008
10:35 1027 30.33 856 25.28 1.3 34.4 84 -1.1 30.1 .2 0.008
10:40 1027 30.33 856 25.28 1.4 34.5 84 -1 30.2 0 0
10:45 1027 30.33 856 25.28 1.5 34.8 84 -0.8 30.5 0 0
10:50 1027 30.33 857 25.31 1.7 35.1 84 -0.7 30.7 0 0
10:55 1027 30.33 857 25.31 1.8 35.3 86 -0.3 31.5 0 0
11:00 1027 30.33 857 25.31 2 35.7 82 -0.6 30.8 0 0
11:05 1027 30.33 857 25.31 2.2 36 82 -0.5 31.1 0 0
11:10 1027 30.33 857 25.31 2.3 36.1 81 -0.6 30.9 .2 0.008
11:15 1027 30.33 857 25.31 2.3 36.1 82 -0.5 31.1 0 0
11:20 1028 30.36 857 25.31 2.2 36 82 -0.5 31.1 0 0
11:25 1028 30.36 857 25.31 2 35.6 84 -0.4 31.2 0 0
11:30 1028 30.36 857 25.31 2 35.5 81 -0.9 30.4 0 0
11:35 1028 30.36 857 25.31 2.1 35.8 83 -0.5 31.1 0 0
11:40 1028 30.36 857 25.31 2.1 35.8 79 -1.2 29.9 0 0
11:45 1028 30.36 857 25.31 2.1 35.7 79 -1.2 29.9 0 0
11:50 1028 30.36 857 25.31 2 35.7 79 -1.2 29.8 0 0
11:55 1028 30.36 857 25.31 2.3 36.2 78 -1.1 30 0 0
12:00 1028 30.36 857 25.31 2.5 36.5 78 -1 30.2 0 0
12:05 1028 30.36 857 25.31 2.7 36.8 77 -1 30.2 0 0
12:10 1028 30.36 857 25.31 2.8 37 78 -0.8 30.6 0 0
12:15 1028 30.36 857 25.31 2.8 37.1 75 -1.2 29.9 0 0
12:20 1028 30.36 857 25.31 2.7 36.9 74 -1.4 29.4 0 0
12:25 1028 30.36 857 25.31 2.8 37.1 78 -0.6 31 0 0
12:30 1028 30.36 857 25.31 3 37.4 76 -0.8 30.6 0 0
12:35 1028 30.36 857 25.31 3 37.3 76 -0.8 30.6 0 0
12:40 1028 30.36 857 25.31 3.1 37.6 75 -1 30.2 0 0
12:45 1028 30.36 857 25.31 3.2 37.8 74 -1 30.3 0 0
12:50 1028 30.36 857 25.31 3.1 37.6 74 -1.1 30 0 0
12:55 1028 30.36 857 25.31 3.1 37.5 77 -0.6 30.9 0 0
13:00 1028 30.36 857 25.31 3.1 37.5 74 -1.2 29.8 0 0
13:05 1028 30.36 857 25.31 3.1 37.6 78 -0.4 31.3 0 0
13:10 1028 30.36 857 25.31 3.6 38.5 72 -0.9 30.4 0 0
13:15 1028 30.36 857 25.31 3.4 38.2 71 -1.4 29.5 0 0
13:20 1028 30.36 857 25.31 3.4 38.1 68 -1.9 28.6 0 0
13:25 1028 30.36 857 25.31 3.1 37.5 71 -1.7 28.9 0 0
13:30 1028 30.36 857 25.31 3.2 37.8 70 -1.7 29 0 0
13:35 1028 30.36 857 25.31 3.3 37.9 72 -1.3 29.7 0 0
13:40 1028 30.36 857 25.31 3.2 37.8 68 -2.1 28.2 0 0
13:45 1028 30.36 857 25.31 3.5 38.2 70 -1.4 29.4 0 0
13:50 1028 30.36 857 25.31 3.8 38.9 68 -1.6 29.1 0 0
13:55 1028 30.36 857 25.31 3.7 38.6 67 -2 28.5 0 0
14:00 1028 30.36 857 25.31 3.9 39.1 63 -2.4 27.6 0 0
14:05 1028 30.36 857 25.31 3.7 38.6 66 -2 28.4 0 0
14:10 1028 30.36 857 25.31 3.6 38.4 66 -2.2 28 0 0
14:15 1028 30.36 857 25.31 3.8 38.8 66 -1.9 28.6 0 0
14:20 1028 30.36 857 25.31 3.5 38.4 67 -2.1 28.3 0 0
14:25 1028 30.36 857 25.31 3.4 38.1 66 -2.3 27.9 0 0
14:30 1028 30.36 857 25.31 3.3 38 68 -2.1 28.3 0 0
14:35 1028 30.36 857 25.31 3 37.4 70 -1.9 28.6 0 0
14:40 1028 30.36 857 25.31 3.2 37.8 69 -1.9 28.7 0 0
14:45 1028 30.36 857 25.31 3.4 38.1 66 -2.3 27.9 0 0
14:50 1028 30.36 857 25.31 3.3 38 68 -2.1 28.3 0 0
14:55 1028 30.36 857 25.31 3.7 38.6 65 -2.4 27.7 0 0
15:00 1028 30.36 857 25.31 3.9 38.9 70 -1.2 29.9 0 0
15:05 1028 30.36 857 25.31 4 39.1 65 -2.1 28.2 0 0
15:10 1028 30.36 857 25.31 3.8 38.8 68 -1.6 29.1 0 0
15:15 1028 30.36 857 25.31 3.3 38 66 -2.4 27.7 0 0
15:20 1028 30.36 857 25.31 3.3 37.9 68 -2.2 28.1 0 0
15:25 1028 30.36 857 25.31 3.3 37.9 68 -2.2 28.1 0 0
15:30 1028 30.36 857 25.31 3.1 37.6 69 -2.1 28.3 0 0
15:35 1028 30.36 857 25.31 3.4 38.1 68 -1.9 28.5 0 0
15:40 1028 30.36 857 25.31 3.3 37.9 67 -2.2 28.1 0 0
15:45 1028 30.36 857 25.31 3.1 37.6 69 -2 28.4 0 0
15:50 1028 30.36 857 25.31 3 37.4 70 -2 28.4 0 0
15:55 1028 30.36 857 25.31 2.9 37.1 69 -2.3 27.9 0 0
16:00 1028 30.36 857 25.31 2.9 37.1 69 -2.3 27.8 0 0
16:05 1028 30.36 858 25.34 2.9 37.1 69 -2.3 27.9 0 0
16:10 1028 30.36 858 25.34 2.9 37.2 67 -2.6 27.4 0 0
16:15 1028 30.36 858 25.34 2.8 37.1 68 -2.5 27.5 0 0
16:20 1028 30.36 858 25.34 3.2 37.8 66 -2.6 27.4 0 0
16:25 1028 30.36 858 25.34 3.3 38 66 -2.4 27.7 0 0
16:30 1028 30.36 858 25.34 3.4 38.1 67 -2.1 28.2 0 0
16:35 1028 30.36 858 25.34 3.2 37.8 66 -2.5 27.5 0 0
16:40 1028 30.36 858 25.34 3.3 37.9 64 -2.8 27 0 0
16:45 1028 30.36 858 25.34 3.3 38 63 -3 26.7 0 0
16:50 1029 30.39 858 25.34 3.3 37.9 64 -2.9 26.8 0 0
16:55 1029 30.39 858 25.34 3.1 37.5 68 -2.4 27.8 0 0
17:00 1029 30.39 858 25.34 2.9 37.3 67 -2.6 27.3 0 0
17:05 1029 30.39 858 25.34 2.9 37.2 66 -2.9 26.8 0 0
17:10 1029 30.39 858 25.34 2.8 37.1 67 -2.8 27 0 0
17:15 1029 30.39 858 25.34 2.9 37.2 67 -2.7 27.1 0 0
17:20 1029 30.39 858 25.34 2.9 37.2 67 -2.7 27.2 0 0
17:25 1029 30.39 858 25.34 2.9 37.2 66 -2.9 26.9 0 0
17:30 1029 30.39 858 25.34 2.9 37.3 67 -2.7 27.2 0 0
17:35 1029 30.39 858 25.34 2.9 37.3 68 -2.4 27.7 0 0
17:40 1029 30.39 858 25.34 2.9 37.2 68 -2.4 27.7 0 0
17:45 1029 30.39 858 25.34 2.9 37.2 68 -2.5 27.5 0 0
17:50 1029 30.39 858 25.34 2.9 37.2 69 -2.3 27.9 0 0
17:55 1029 30.39 858 25.34 2.9 37.1 67 -2.6 27.3 0 0
18:00 1029 30.39 858 25.34 2.8 37.1 67 -2.8 27 0 0
18:05 1029 30.39 858 25.34 2.8 37 69 -2.4 27.6 0 0
18:10 1029 30.39 858 25.34 2.7 36.9 69 -2.4 27.7 0 0
18:15 1029 30.39 858 25.34 2.6 36.7 71 -2.2 28.1 0 0
18:20 1029 30.39 858 25.34 2.5 36.5 70 -2.4 27.8 0 0
18:25 1029 30.39 858 25.34 2.5 36.5 70 -2.4 27.6 0 0
18:30 1029 30.39 858 25.34 2.4 36.4 71 -2.3 27.8 0 0
18:35 1029 30.39 858 25.34 2.3 36.2 72 -2.2 28.1 0 0
18:40 1029 30.39 858 25.34 2.2 35.9 75 -1.9 28.6 0 0
18:45 1029 30.39 858 25.34 2 35.7 76 -1.8 28.7 0 0
18:50 1029 30.39 858 25.34 2 35.5 75 -1.9 28.5 0 0
18:55 1029 30.39 858 25.34 2 35.5 75 -2 28.3 0 0
19:00 1029 30.39 858 25.34 1.9 35.5 75 -2.1 28.2 0 0
19:05 1029 30.39 859 25.37 1.9 35.4 75 -2.2 28.1 0 0
19:10 1029 30.39 859 25.37 1.8 35.3 75 -2.1 28.3 0 0
19:15 1029 30.39 859 25.37 1.8 35.2 75 -2.1 28.2 0 0
19:20 1029 30.39 859 25.37 1.8 35.3 75 -2.1 28.1 0 0
19:25 1029 30.39 859 25.37 1.9 35.4 74 -2.3 27.9 0 0
19:30 1030 30.42 859 25.37 1.9 35.4 74 -2.3 27.9 0 0
19:35 1029 30.39 859 25.37 1.9 35.4 75 -2.1 28.1 0 0
19:40 1030 30.42 859 25.37 1.8 35.3 74 -2.3 27.9 0 0
19:45 1030 30.42 859 25.37 1.8 35.2 76 -2 28.4 0 0
19:50 1030 30.42 859 25.37 1.7 35.1 76 -2.1 28.2 0 0
19:55 1030 30.42 859 25.37 1.7 35 76 -2.1 28.2 0 0
20:00 1030 30.42 859 25.37 1.7 35.1 76 -2.1 28.3 0 0
20:05 1030 30.42 859 25.37 1.6 34.9 76 -2.2 28.1 0 0
20:10 1030 30.42 859 25.37 1.6 34.9 76 -2.2 28 0 0
20:15 1030 30.42 859 25.37 1.5 34.7 77 -2.2 28.1 0 0
20:20 1030 30.42 859 25.37 1.3 34.4 76 -2.5 27.6 0 0
20:25 1030 30.42 859 25.37 1.2 34.2 76 -2.5 27.5 0 0
20:30 1030 30.42 859 25.37 1.1 34 75 -2.8 26.9 0 0
20:35 1030 30.42 859 25.37 1.2 34.1 75 -2.7 27.1 0 0
20:40 1030 30.42 859 25.37 0.9 33.7 76 -2.8 27 0 0
20:45 1030 30.42 859 25.37 0.9 33.7 76 -2.8 27 0 0
20:50 1030 30.42 859 25.37 0.8 33.5 77 -2.7 27.2 0 0
20:55 1030 30.42 859 25.37 0.7 33.2 79 -2.6 27.3 0 0
21:00 1030 30.42 859 25.37 0.5 33 79 -2.6 27.3 0 0
21:05 1030 30.42 859 25.37 0.2 32.4 80 -2.8 26.9 0 0
21:10 1030 30.42 859 25.37 -0.1 31.8 82 -2.9 26.9 0 0
21:15 1030 30.42 859 25.37 0.2 32.4 80 -2.8 27 0 0
21:20 1030 30.42 859 25.37 0.2 32.4 81 -2.6 27.3 0 0
21:25 1030 30.42 859 25.37 0.3 32.6 81 -2.6 27.3 0 0
21:30 1030 30.42 859 25.37 0.2 32.4 82 -2.4 27.7 0 0
21:35 1030 30.42 859 25.37 -0.3 31.4 85 -2.5 27.5 0 0
21:40 1030 30.42 859 25.37 -0.2 31.7 84 -2.5 27.5 0 0
21:45 1030 30.42 859 25.37 -0.2 31.7 87 -2.2 28.1 0 0
21:50 1030 30.42 859 25.37 -0.4 31.3 87 -2.2 28 0 0
21:55 1030 30.42 859 25.37 -0.5 31.1 90 -2 28.4 0 0
22:00 1030 30.42 859 25.37 -0.5 31.2 88 -2.1 28.2 0 0
22:05 1030 30.42 859 25.37 0.1 32.1 85 -2.2 28 0 0
22:10 1030 30.42 859 25.37 0.6 33 81 -2.3 27.9 0 0
22:15 1030 30.42 859 25.37 1 33.8 80 -2.1 28.2 0 0
22:20 1030 30.42 859 25.37 1.1 33.9 79 -2.2 28.1 0 0
22:25 1030 30.42 859 25.37 1.1 34.1 79 -2.1 28.1 0 0
22:30 1030 30.42 859 25.37 1.2 34.2 78 -2.2 28 0 0
22:35 1030 30.42 859 25.37 1.2 34.2 79 -2 28.5 0 0
22:40 1030 30.42 859 25.37 1.2 34.2 79 -2 28.3 0 0
22:45 1030 30.42 859 25.37 1.2 34.2 79 -2 28.3 0 0
22:50 1030 30.42 859 25.37 1.3 34.3 78 -2.2 28 0 0
22:55 1030 30.42 859 25.37 1.4 34.5 77 -2.3 27.9 0 0
23:00 1030 30.42 859 25.37 1.4 34.6 77 -2.1 28.2 0 0
23:05 1030 30.42 859 25.37 1.4 34.5 79 -1.9 28.5 0 0
23:10 1030 30.42 859 25.37 1.3 34.4 79 -1.9 28.5 0 0
23:15 1030 30.42 859 25.37 1.3 34.3 80 -1.8 28.7 0 0
23:20 1030 30.42 859 25.37 1.2 34.2 81 -1.8 28.8 0 0
23:25 1030 30.42 860 25.4 1.1 34 82 -1.5 29.2 0 0
23:30 1030 30.42 860 25.4 1.1 33.9 82 -1.7 29 0 0
23:35 1030 30.42 860 25.4 1 33.8 83 -1.6 29.2 0 0
23:40 1030 30.42 860 25.4 0.9 33.7 84 -1.5 29.3 0 0
23:45 1030 30.42 860 25.4 0.9 33.6 84 -1.5 29.3 0 0
23:50 1030 30.42 860 25.4 0.8 33.5 87 -1.2 29.9 0 0
23:55 1030 30.42 859 25.37 0.6 33.1 88 -1.1 30 0 0
24:00 1030 30.42 859 25.37 0.5 33 88 -1.2 29.8 0 0